Time;durP1;ratioP1;P1;durP2;ratioP2;P2;SDS_P1;SDS_P2;PMS_P1;PMS_P2;Temp;Humidity;BMP_temperature;BMP_pressure;BME280_temperature;BME280_humidity;BME280_pressure;Samples;Min_cycle;Max_cycle;Signal;HPM_P1;HPM_P2
2023/09/04 00:01:51;;;;;;;108.50;59.58;;;20.30;93.30;;;;;;4959770;28;90927;-77
2023/09/04 00:04:16;;;;;;;106.47;58.83;;;20.30;93.40;;;;;;4979185;28;89833;-77
2023/09/04 00:06:42;;;;;;;106.68;58.45;;;20.30;93.10;;;;;;4960962;28;92679;-76
2023/09/04 00:09:07;;;;;;;108.13;59.58;;;20.30;92.90;;;;;;4970883;28;90338;-76
2023/09/04 00:11:33;;;;;;;106.53;58.90;;;20.30;92.90;;;;;;4960233;28;89896;-77
2023/09/04 00:13:58;;;;;;;107.10;59.42;;;20.30;92.90;;;;;;4971005;28;90106;-76
2023/09/04 00:16:24;;;;;;;107.93;59.03;;;20.30;93.10;;;;;;4960686;28;91128;-77
2023/09/04 00:18:50;;;;;;;107.43;58.92;;;20.20;93.10;;;;;;4970265;28;89977;-77
2023/09/04 00:21:15;;;;;;;107.85;59.30;;;20.20;92.60;;;;;;4959637;28;93440;-77
2023/09/04 00:23:41;;;;;;;107.68;58.95;;;20.20;92.90;;;;;;4973089;28;92115;-76
2023/09/04 00:26:07;;;;;;;107.65;59.40;;;20.20;93.00;;;;;;4972595;28;90880;-77
2023/09/04 00:28:32;;;;;;;108.35;59.72;;;20.20;93.40;;;;;;4965608;28;92495;-76
2023/09/04 00:30:58;;;;;;;105.78;58.53;;;20.10;92.40;;;;;;4974179;28;92250;-77
2023/09/04 00:33:23;;;;;;;105.97;59.10;;;20.10;92.80;;;;;;4966130;28;93487;-76
2023/09/04 00:35:49;;;;;;;111.22;59.67;;;20.10;93.30;;;;;;4945972;28;93732;-76
2023/09/04 00:38:16;;;;;;;108.65;59.38;;;20.10;92.80;;;;;;4963287;28;90080;-76
2023/09/04 00:40:41;;;;;;;109.28;58.85;;;20.10;93.20;;;;;;4965799;28;90460;-75
2023/09/04 00:43:07;;;;;;;107.63;59.03;;;20.10;93.90;;;;;;4968301;28;90925;-77
2023/09/04 00:45:35;;;;;;;107.82;58.40;;;20.10;94.30;;;;;;4961311;28;92082;-77
2023/09/04 00:48:02;;;;;;;105.90;58.88;;;20.10;95.00;;;;;;4963720;28;95132;-76
2023/09/04 00:50:27;;;;;;;108.05;59.25;;;20.10;94.50;;;;;;4971510;28;94050;-77
2023/09/04 00:53:03;;;;;;;108.28;59.25;;;20.10;94.20;;;;;;4968127;28;95016;-77
2023/09/04 00:55:29;;;;;;;106.78;58.85;;;20.00;93.80;;;;;;4974956;28;91757;-76
2023/09/04 00:57:55;;;;;;;107.75;59.60;;;20.00;93.70;;;;;;4978800;28;91547;-77
2023/09/04 01:00:23;;;;;;;107.43;59.60;;;20.00;93.40;;;;;;4969404;28;92854;-77
2023/09/04 01:02:49;;;;;;;107.72;59.67;;;20.00;92.90;;;;;;4967600;28;90086;-77
2023/09/04 01:05:15;;;;;;;106.47;59.10;;;19.90;93.80;;;;;;4948361;28;91195;-77
2023/09/04 01:07:42;;;;;;;106.68;59.20;;;19.90;93.40;;;;;;4970909;28;90450;-76
2023/09/04 01:10:09;;;;;;;105.63;58.80;;;19.90;93.90;;;;;;4962570;28;91574;-77
2023/09/04 01:12:55;;;;;;;107.30;58.95;;;19.90;93.90;;;;;;4963334;28;92854;-75
2023/09/04 01:15:21;;;;;;;106.20;58.83;;;19.90;93.60;;;;;;4966898;28;90497;-76
2023/09/04 01:17:47;;;;;;;107.63;59.28;;;19.90;93.00;;;;;;4969339;28;89904;-76
2023/09/04 01:20:39;;;;;;;108.97;59.47;;;19.90;93.50;;;;;;4976588;28;91004;-76
2023/09/04 01:23:05;;;;;;;107.32;58.75;;;19.90;93.40;;;;;;4963347;28;91809;-76
2023/09/04 01:25:36;;;;;;;109.25;59.72;;;19.80;93.20;;;;;;4963194;28;92152;-77
2023/09/04 01:28:09;;;;;;;107.00;59.72;;;19.80;93.30;;;;;;4958601;28;91305;-76
2023/09/04 01:31:11;;;;;;;105.78;59.10;;;19.80;93.50;;;;;;4965226;28;90189;-75
2023/09/04 01:33:42;;;;;;;107.57;59.03;;;19.80;93.60;;;;;;4949893;28;91398;-77
2023/09/04 01:36:13;;;;;;;108.37;58.57;;;19.80;93.90;;;;;;4960187;28;92480;-76
2023/09/04 01:38:39;;;;;;;;;;;19.80;93.80;;;;;;4964302;28;89232;-76
2023/09/04 01:41:07;;;;;;;107.18;59.13;;;19.80;93.70;;;;;;4963771;28;90896;-77
2023/09/04 01:43:33;;;;;;;107.03;59.00;;;19.70;93.80;;;;;;4966298;28;94318;-77
2023/09/04 01:45:59;;;;;;;106.60;58.72;;;19.70;93.70;;;;;;4967043;28;94199;-76
2023/09/04 01:48:24;;;;;;;105.95;58.80;;;19.70;93.50;;;;;;4961790;28;93024;-77
2023/09/04 01:50:50;;;;;;;106.32;58.92;;;19.70;93.20;;;;;;4966610;28;94924;-77
2023/09/04 01:53:16;;;;;;;106.97;59.22;;;19.70;93.40;;;;;;4963396;28;93874;-77
2023/09/04 01:55:42;;;;;;;106.43;58.72;;;19.70;93.90;;;;;;4967416;28;94285;-76
2023/09/04 01:58:07;;;;;;;105.88;58.90;;;19.70;94.50;;;;;;4959400;28;90497;-76
2023/09/04 02:00:33;;;;;;;105.43;58.45;;;19.70;94.80;;;;;;4964622;28;94048;-77
2023/09/04 02:02:59;;;;;;;107.22;59.20;;;19.70;94.30;;;;;;4966926;28;92584;-76
2023/09/04 02:05:24;;;;;;;106.93;59.22;;;19.60;93.90;;;;;;4952269;28;89805;-76
2023/09/04 02:07:50;;;;;;;106.45;59.25;;;19.60;93.50;;;;;;4945652;28;90493;-76
2023/09/04 02:10:15;;;;;;;106.38;59.17;;;19.60;93.60;;;;;;4948293;28;92077;-76
2023/09/04 02:12:41;;;;;;;105.85;58.80;;;19.60;93.50;;;;;;4947212;28;90833;-76
2023/09/04 02:15:07;;;;;;;108.07;59.60;;;19.60;94.00;;;;;;4920248;28;95444;-77
2023/09/04 02:17:33;;;;;;;107.70;59.50;;;19.60;94.00;;;;;;4953614;28;91026;-77
2023/09/04 02:19:59;;;;;;;107.75;59.88;;;19.50;93.70;;;;;;4923565;28;93680;-75
2023/09/04 02:22:25;;;;;;;106.90;59.38;;;19.50;94.40;;;;;;4938299;28;94897;-77
2023/09/04 02:24:50;;;;;;;106.45;59.40;;;19.50;94.30;;;;;;4944801;28;89665;-76
2023/09/04 02:27:16;;;;;;;104.75;58.33;;;19.50;94.50;;;;;;4936268;28;89198;-76
2023/09/04 02:29:41;;;;;;;107.50;59.42;;;19.40;93.70;;;;;;4946443;28;90083;-75
2023/09/04 02:32:07;;;;;;;107.45;59.58;;;19.40;93.60;;;;;;4946224;28;92737;-76
2023/09/04 02:34:33;;;;;;;105.80;59.05;;;19.40;93.40;;;;;;4941482;28;91538;-76
2023/09/04 02:36:59;;;;;;;105.45;58.55;;;19.40;94.00;;;;;;4947284;28;89554;-76
2023/09/04 02:39:24;;;;;;;105.82;58.95;;;19.40;94.60;;;;;;4951478;28;93455;-76
2023/09/04 02:41:50;;;;;;;108.20;59.78;;;19.40;94.30;;;;;;4929665;28;90031;-76
2023/09/04 02:44:16;;;;;;;105.85;59.30;;;19.40;94.10;;;;;;4949992;28;89978;-75
2023/09/04 02:46:41;;;;;;;106.55;59.35;;;19.30;94.20;;;;;;4952044;28;90509;-76
2023/09/04 02:49:07;;;;;;;106.38;59.20;;;19.30;94.20;;;;;;4950140;28;89865;-75
2023/09/04 02:51:33;;;;;;;106.78;58.97;;;19.30;94.60;;;;;;4960289;28;89576;-75
2023/09/04 02:53:58;;;;;;;106.30;58.72;;;19.30;95.30;;;;;;4945450;28;89525;-77
2023/09/04 02:56:24;;;;;;;108.70;59.10;;;19.30;94.40;;;;;;4957120;28;89949;-77
2023/09/04 02:58:50;;;;;;;106.53;59.03;;;19.30;94.40;;;;;;4936479;28;91934;-75
2023/09/04 03:01:16;;;;;;;109.55;60.53;;;19.20;94.80;;;;;;4934775;28;91702;-77
2023/09/04 03:03:42;;;;;;;107.45;59.85;;;19.20;94.00;;;;;;4959995;28;90068;-76
2023/09/04 03:06:10;;;;;;;107.53;59.38;;;19.20;94.30;;;;;;4961781;28;93072;-77
2023/09/04 03:08:38;;;;;;;107.63;59.90;;;19.20;94.10;;;;;;4976598;28;89789;-76
2023/09/04 03:11:09;;;;;;;108.35;59.88;;;19.20;94.50;;;;;;4977643;28;90439;-77
2023/09/04 03:13:35;;;;;;;;;;;19.20;94.30;;;;;;4981480;28;90182;-75
2023/09/04 03:16:00;;;;;;;109.25;59.95;;;19.10;94.00;;;;;;4970770;28;89541;-74
2023/09/04 03:18:26;;;;;;;107.15;59.45;;;19.10;94.00;;;;;;4961701;28;90397;-76
2023/09/04 03:20:52;;;;;;;105.93;58.78;;;19.10;94.20;;;;;;4969170;28;90231;-77
2023/09/04 03:23:18;;;;;;;105.28;58.80;;;19.10;94.30;;;;;;4975003;28;90570;-77
2023/09/04 03:25:44;;;;;;;106.20;59.38;;;19.10;94.50;;;;;;4970193;28;91303;-76
2023/09/04 03:28:09;;;;;;;106.97;59.92;;;19.10;94.00;;;;;;4973104;28;90393;-77
2023/09/04 03:30:35;;;;;;;107.90;59.47;;;19.00;94.10;;;;;;4969861;28;91021;-76
2023/09/04 03:33:00;;;;;;;108.15;60.05;;;19.00;94.20;;;;;;4977742;28;90387;-74
2023/09/04 03:35:26;;;;;;;107.03;59.75;;;19.00;94.70;;;;;;4995130;28;90270;-76
2023/09/04 03:37:52;;;;;;;107.57;60.08;;;19.00;94.40;;;;;;4969395;28;91144;-76
2023/09/04 03:40:18;;;;;;;106.75;60.20;;;18.90;94.30;;;;;;4964178;28;90560;-75
2023/09/04 03:42:44;;;;;;;106.47;59.65;;;19.00;94.60;;;;;;4966156;28;90735;-74
2023/09/04 03:45:10;;;;;;;108.03;58.70;;;18.90;95.00;;;;;;4957766;28;95065;-77
2023/09/04 03:47:35;;;;;;;106.43;58.35;;;18.90;96.10;;;;;;4964112;28;91487;-76
2023/09/04 03:50:01;;;;;;;104.82;58.40;;;19.00;95.20;;;;;;4977769;28;91452;-75
2023/09/04 03:52:26;;;;;;;107.85;59.67;;;18.90;95.70;;;;;;4948899;28;92499;-76
2023/09/04 03:54:52;;;;;;;105.25;58.85;;;18.90;95.20;;;;;;4966932;28;91703;-75
2023/09/04 03:57:17;;;;;;;107.50;59.95;;;18.90;94.90;;;;;;4961320;28;94729;-76
2023/09/04 03:59:43;;;;;;;106.03;59.55;;;18.90;95.60;;;;;;4972026;28;90553;-76
2023/09/04 04:02:09;;;;;;;106.43;59.00;;;18.80;94.90;;;;;;4947769;28;92299;-76
2023/09/04 04:04:34;;;;;;;105.88;58.85;;;18.80;95.70;;;;;;4965111;28;89496;-76
2023/09/04 04:07:00;;;;;;;107.25;58.75;;;18.80;95.80;;;;;;4963058;28;90135;-76
2023/09/04 04:09:25;;;;;;;105.38;59.72;;;18.80;95.80;;;;;;4978953;28;90311;-76
2023/09/04 04:11:52;;;;;;;104.90;58.40;;;18.80;96.00;;;;;;4952237;28;93436;-76
2023/09/04 04:14:17;;;;;;;106.05;59.03;;;18.80;96.00;;;;;;4937403;28;91780;-76
2023/09/04 04:16:43;;;;;;;105.22;58.67;;;18.80;95.60;;;;;;4951113;28;90137;-75
2023/09/04 04:19:09;;;;;;;107.22;59.60;;;18.80;96.10;;;;;;4970653;28;90128;-77
2023/09/04 04:21:34;;;;;;;106.90;59.47;;;18.70;95.90;;;;;;4951674;28;95152;-77
2023/09/04 04:24:00;;;;;;;105.28;58.60;;;18.80;95.70;;;;;;4958476;28;91229;-76
2023/09/04 04:26:25;;;;;;;106.03;59.10;;;18.70;96.20;;;;;;4946859;28;90933;-75
2023/09/04 04:28:51;;;;;;;108.22;59.75;;;18.70;95.50;;;;;;4952713;28;91975;-77
2023/09/04 04:31:17;;;;;;;105.65;59.15;;;18.70;95.30;;;;;;4959072;28;89828;-74
2023/09/04 04:33:43;;;;;;;107.93;60.17;;;18.70;95.50;;;;;;4964653;28;90435;-74
2023/09/04 04:36:08;;;;;;;107.95;59.78;;;18.70;95.00;;;;;;4962983;28;90912;-74
2023/09/04 04:38:34;;;;;;;108.45;59.65;;;18.70;94.90;;;;;;4969546;28;90963;-75
2023/09/04 04:41:00;;;;;;;108.72;60.75;;;18.60;95.40;;;;;;4963581;28;90049;-73
2023/09/04 04:43:25;;;;;;;106.30;59.20;;;18.60;95.40;;;;;;4970821;28;90496;-74
2023/09/04 04:45:52;;;;;;;111.10;62.22;;;18.80;99.90;;;;;;4966842;28;90990;-73
2023/09/04 04:48:19;;;;;;;112.50;63.38;;;18.90;99.10;;;;;;4964631;28;90916;-75
2023/09/04 04:50:44;;;;;;;114.88;64.57;;;18.90;97.10;;;;;;4970413;28;90831;-74
2023/09/04 04:53:10;;;;;;;112.97;64.45;;;18.80;95.20;;;;;;4959089;28;89159;-76
2023/09/04 04:55:36;;;;;;;112.47;63.50;;;18.80;94.00;;;;;;4967902;28;90050;-75
2023/09/04 04:58:02;;;;;;;113.80;63.95;;;18.80;93.00;;;;;;4954326;28;91323;-75
2023/09/04 05:00:27;;;;;;;114.13;63.42;;;18.80;92.10;;;;;;4964027;28;91391;-76
2023/09/04 05:02:53;;;;;;;111.70;62.70;;;18.70;91.80;;;;;;4974158;28;90204;-73
2023/09/04 05:05:18;;;;;;;112.45;63.13;;;18.70;91.80;;;;;;4955131;28;90422;-76
2023/09/04 05:07:44;;;;;;;113.65;63.60;;;18.60;91.50;;;;;;4963641;28;89533;-73
2023/09/04 05:10:10;;;;;;;111.03;63.05;;;18.60;91.50;;;;;;4959530;28;90118;-75
2023/09/04 05:12:36;;;;;;;111.50;62.03;;;18.60;91.50;;;;;;4967737;28;89891;-74
2023/09/04 05:15:01;;;;;;;111.07;62.25;;;18.50;91.70;;;;;;4965582;28;90657;-73
2023/09/04 05:17:27;;;;;;;111.93;63.33;;;18.50;91.70;;;;;;4949818;28;89933;-74
2023/09/04 05:19:53;;;;;;;113.35;63.72;;;18.50;91.40;;;;;;4963980;28;89901;-73
2023/09/04 05:22:18;;;;;;;109.47;61.95;;;18.50;91.20;;;;;;4968250;28;89733;-74
2023/09/04 05:24:44;;;;;;;111.65;63.05;;;18.50;91.00;;;;;;4958758;28;90732;-74
2023/09/04 05:27:09;;;;;;;114.05;63.65;;;18.50;91.00;;;;;;4970133;28;90576;-75
2023/09/04 05:29:35;;;;;;;113.25;63.15;;;18.40;90.80;;;;;;4964938;28;92835;-75
2023/09/04 05:32:01;;;;;;;112.32;62.75;;;18.40;91.00;;;;;;4947892;28;90703;-73
2023/09/04 05:34:26;;;;;;;113.75;62.72;;;18.40;91.00;;;;;;4955594;28;90213;-74
2023/09/04 05:36:53;;;;;;;113.65;63.25;;;18.40;90.80;;;;;;4970612;28;90441;-78
2023/09/04 05:39:19;;;;;;;115.18;63.63;;;18.40;90.70;;;;;;4952752;28;90504;-75
2023/09/04 05:41:45;;;;;;;114.28;62.75;;;18.30;91.50;;;;;;4954654;28;89387;-76
2023/09/04 05:44:10;;;;;;;112.45;62.50;;;18.20;92.10;;;;;;4965884;28;90416;-77
2023/09/04 05:46:36;;;;;;;111.32;61.55;;;18.10;92.50;;;;;;4960467;28;94864;-76
2023/09/04 05:49:02;;;;;;;110.18;61.70;;;18.00;92.70;;;;;;4970389;28;95225;-77
2023/09/04 05:51:27;;;;;;;113.38;60.97;;;18.00;92.80;;;;;;4964633;28;94641;-76
2023/09/04 05:53:53;;;;;;;111.05;60.53;;;18.00;93.00;;;;;;4973917;28;89667;-74
2023/09/04 05:56:18;;;;;;;111.25;60.42;;;18.00;93.10;;;;;;4962799;28;93318;-78
2023/09/04 05:58:48;;;;;;;110.43;59.63;;;18.00;93.10;;;;;;4969838;28;91450;-77
2023/09/04 06:01:15;;;;;;;111.85;60.22;;;18.00;93.30;;;;;;4965289;28;90990;-78
2023/09/04 06:03:43;;;;;;;111.45;60.05;;;18.00;93.40;;;;;;4971870;28;89910;-73
2023/09/04 06:06:09;;;;;;;109.03;59.63;;;18.00;93.50;;;;;;4973708;28;90743;-77
2023/09/04 06:08:35;;;;;;;106.28;59.15;;;18.00;93.60;;;;;;4971914;28;89884;-78
2023/09/04 06:11:01;;;;;;;106.50;59.75;;;18.00;93.50;;;;;;4974588;28;90272;-76
2023/09/04 06:13:26;;;;;;;105.82;58.65;;;18.00;93.70;;;;;;4961249;28;94498;-78
2023/09/04 06:15:52;;;;;;;107.68;59.42;;;18.10;93.80;;;;;;4952179;28;93158;-73
2023/09/04 06:18:19;;;;;;;109.22;58.80;;;18.10;93.90;;;;;;4950428;28;89964;-77
2023/09/04 06:20:45;;;;;;;108.03;58.83;;;18.10;93.80;;;;;;4936964;28;90430;-74
2023/09/04 06:23:11;;;;;;;110.20;59.22;;;18.10;93.80;;;;;;4902915;28;94671;-75
2023/09/04 06:25:39;;;;;;;108.82;59.15;;;18.20;93.80;;;;;;4915407;28;91379;-77
2023/09/04 06:28:09;;;;;;;108.30;58.95;;;18.20;93.90;;;;;;4929407;28;90044;-75
2023/09/04 06:30:35;;;;;;;108.03;59.47;;;18.20;94.00;;;;;;4918031;28;94069;-77
2023/09/04 06:33:01;;;;;;;107.00;58.55;;;18.30;94.10;;;;;;4929015;28;92320;-76
2023/09/04 06:35:28;;;;;;;107.50;58.20;;;18.30;94.10;;;;;;4933155;28;93102;-74
2023/09/04 06:37:54;;;;;;;106.65;58.60;;;18.30;94.20;;;;;;4929151;28;92221;-76
2023/09/04 06:40:20;;;;;;;110.88;58.47;;;18.40;94.20;;;;;;4927450;28;89915;-77
2023/09/04 06:42:46;;;;;;;107.25;58.10;;;18.40;94.10;;;;;;4922192;28;91719;-76
2023/09/04 06:45:12;;;;;;;108.03;58.40;;;18.50;94.20;;;;;;4954925;28;91388;-77
2023/09/04 06:47:38;;;;;;;108.75;58.33;;;18.60;94.20;;;;;;4964412;28;92966;-78
2023/09/04 06:50:08;;;;;;;108.53;58.38;;;18.60;94.10;;;;;;4963168;28;92126;-78
2023/09/04 06:52:34;;;;;;;107.72;58.53;;;18.70;94.20;;;;;;4961281;28;90502;-77
2023/09/04 06:55:00;;;;;;;106.90;58.17;;;18.70;94.10;;;;;;4966392;28;91180;-74
2023/09/04 06:57:26;;;;;;;105.57;58.28;;;18.80;94.20;;;;;;4972549;28;92585;-77
2023/09/04 06:59:52;;;;;;;106.43;58.13;;;18.80;94.10;;;;;;4963493;28;89792;-77
2023/09/04 07:02:19;;;;;;;105.60;57.90;;;18.90;94.00;;;;;;4971093;28;91950;-77
2023/09/04 07:04:45;;;;;;;105.40;58.08;;;19.00;93.90;;;;;;4964864;28;89655;-77
2023/09/04 07:07:10;;;;;;;107.25;58.55;;;19.00;93.70;;;;;;4961720;28;89575;-77
2023/09/04 07:09:36;;;;;;;104.88;57.85;;;19.10;93.80;;;;;;4979331;28;90119;-77
2023/09/04 07:12:03;;;;;;;108.13;58.22;;;19.10;93.60;;;;;;4956744;28;94895;-76
2023/09/04 07:14:28;;;;;;;104.80;58.35;;;19.10;93.80;;;;;;4975236;28;90138;-77
2023/09/04 07:16:54;;;;;;;106.07;58.22;;;19.20;93.50;;;;;;4944707;28;92170;-77
2023/09/04 07:19:20;;;;;;;105.05;58.20;;;19.20;93.40;;;;;;4971343;28;92221;-77
2023/09/04 07:21:45;;;;;;;107.10;58.22;;;19.30;93.40;;;;;;4946271;28;91175;-78
2023/09/04 07:24:11;;;;;;;105.80;57.90;;;19.30;93.20;;;;;;4958537;28;93291;-76
2023/09/04 07:26:37;;;;;;;105.07;58.65;;;19.30;93.30;;;;;;4957901;28;91080;-75
2023/09/04 07:29:02;;;;;;;106.15;58.13;;;19.40;93.10;;;;;;4956503;28;90132;-75
2023/09/04 07:31:28;;;;;;;105.88;58.22;;;19.40;93.00;;;;;;4978457;28;89642;-77
2023/09/04 07:33:54;;;;;;;105.57;58.35;;;19.50;93.10;;;;;;4979381;28;90070;-76
2023/09/04 07:36:20;;;;;;;106.72;57.72;;;19.50;92.80;;;;;;4954450;28;89538;-78
2023/09/04 07:38:46;;;;;;;106.40;58.45;;;19.60;93.40;;;;;;4958874;28;90923;-76
2023/09/04 07:41:12;;;;;;;105.55;58.08;;;19.60;92.80;;;;;;4970309;28;90279;-77
2023/09/04 07:43:38;;;;;;;106.07;58.35;;;19.70;92.60;;;;;;4971982;28;90866;-77
2023/09/04 07:46:04;;;;;;;107.93;58.03;;;19.70;92.60;;;;;;4981295;28;90959;-77
2023/09/04 07:48:30;;;;;;;105.68;57.95;;;19.80;92.40;;;;;;4968238;28;91369;-76
2023/09/04 07:50:59;;;;;;;108.57;58.35;;;19.80;92.20;;;;;;4972317;28;90966;-75
2023/09/04 07:53:24;;;;;;;109.72;57.85;;;19.90;92.20;;;;;;4960845;28;90749;-77
2023/09/04 07:55:51;;;;;;;105.18;57.80;;;19.90;92.10;;;;;;4955020;28;90270;-78
2023/09/04 07:58:17;;;;;;;106.60;57.88;;;19.90;91.70;;;;;;4967335;28;91927;-76
2023/09/04 08:00:48;;;;;;;106.05;58.17;;;19.90;91.90;;;;;;4957744;28;92053;-75
2023/09/04 08:03:14;;;;;;;;;;;20.00;91.70;;;;;;4963386;28;91563;-77
2023/09/04 08:05:40;;;;;;;105.05;57.63;;;20.10;91.70;;;;;;4969828;28;89899;-78
2023/09/04 08:08:09;;;;;;;104.40;57.70;;;20.10;91.60;;;;;;4978608;28;89480;-77
2023/09/04 08:10:40;;;;;;;105.32;57.47;;;20.20;91.70;;;;;;4978967;28;89830;-74
2023/09/04 08:13:17;;;;;;;105.25;58.50;;;20.20;91.70;;;;;;4966156;28;89909;-77
2023/09/04 08:15:44;;;;;;;105.78;57.92;;;20.30;91.60;;;;;;4966499;28;90804;-76
2023/09/04 08:18:09;;;;;;;107.47;58.33;;;20.30;91.30;;;;;;4972643;28;90023;-78
2023/09/04 08:20:36;;;;;;;105.32;58.05;;;20.40;91.30;;;;;;4961767;28;89620;-78
2023/09/04 08:23:02;;;;;;;105.78;58.00;;;20.40;91.10;;;;;;4978208;28;90252;-76
2023/09/04 08:25:28;;;;;;;106.57;58.28;;;20.50;91.10;;;;;;4972391;28;91093;-78
2023/09/04 08:27:54;;;;;;;106.15;57.97;;;20.50;91.00;;;;;;4959249;28;92345;-76
2023/09/04 08:30:19;;;;;;;108.10;58.35;;;20.60;90.90;;;;;;4967471;28;90382;-75
2023/09/04 08:32:45;;;;;;;108.05;58.30;;;20.60;90.80;;;;;;4974487;28;89381;-78
2023/09/04 08:35:11;;;;;;;105.13;58.05;;;20.60;90.60;;;;;;4980560;28;89579;-78
2023/09/04 08:37:37;;;;;;;105.00;57.65;;;20.70;90.50;;;;;;4969880;28;93813;-78
2023/09/04 08:40:03;;;;;;;108.00;58.28;;;20.70;90.30;;;;;;4977727;28;91539;-78
2023/09/04 08:42:29;;;;;;;107.78;58.08;;;20.80;90.40;;;;;;4974271;28;90574;-78
2023/09/04 08:44:57;;;;;;;105.60;57.90;;;20.80;90.20;;;;;;4973783;28;91118;-77
2023/09/04 08:47:23;;;;;;;108.82;57.88;;;20.80;90.10;;;;;;4983540;28;89741;-78
2023/09/04 08:49:50;;;;;;;106.10;57.47;;;20.80;90.00;;;;;;4971313;28;90715;-79
2023/09/04 08:52:16;;;;;;;105.85;58.40;;;20.90;89.90;;;;;;4971793;28;90195;-77
2023/09/04 08:54:42;;;;;;;105.65;58.13;;;20.90;89.90;;;;;;4975117;28;90119;-78
2023/09/04 08:57:10;;;;;;;109.63;57.75;;;21.00;89.70;;;;;;4963387;28;89258;-75
2023/09/04 08:59:36;;;;;;;105.57;58.00;;;21.00;89.70;;;;;;4968536;28;90191;-76
2023/09/04 09:02:05;;;;;;;108.47;58.13;;;21.00;89.00;;;;;;4968755;28;90169;-78
2023/09/04 09:04:32;;;;;;;107.95;58.42;;;21.10;89.00;;;;;;4978074;28;92818;-77
2023/09/04 09:06:59;;;;;;;107.70;57.92;;;21.10;89.10;;;;;;4962977;28;90001;-75
2023/09/04 09:09:27;;;;;;;104.93;57.22;;;21.10;88.70;;;;;;4980014;28;90199;-77
2023/09/04 09:11:55;;;;;;;110.13;58.45;;;21.20;88.70;;;;;;4965859;28;94778;-78
2023/09/04 09:14:26;;;;;;;106.38;58.15;;;21.20;88.20;;;;;;4974989;28;89503;-76
2023/09/04 09:17:02;;;;;;;107.20;58.22;;;21.30;88.30;;;;;;4954847;28;90378;-78
2023/09/04 09:19:34;;;;;;;107.40;58.13;;;21.30;88.20;;;;;;4970224;28;91149;-77
2023/09/04 09:22:22;;;;;;;107.10;58.10;;;21.40;87.80;;;;;;4969246;28;89472;-77
2023/09/04 09:24:56;;;;;;;106.43;57.83;;;21.40;87.70;;;;;;4969071;28;89909;-76
2023/09/04 09:27:24;;;;;;;106.43;57.53;;;21.40;88.10;;;;;;4970265;28;90181;-79
2023/09/04 09:29:50;;;;;;;108.28;57.40;;;21.50;87.30;;;;;;4968797;28;97151;-76
2023/09/04 09:32:17;;;;;;;107.40;58.03;;;21.50;86.90;;;;;;4977333;28;91292;-78
2023/09/04 09:34:54;;;;;;;107.97;58.33;;;21.60;87.20;;;;;;4981203;28;90092;-78
2023/09/04 09:37:21;;;;;;;109.05;58.03;;;21.60;87.00;;;;;;4963024;28;89832;-77
2023/09/04 09:39:47;;;;;;;106.32;57.65;;;21.60;86.60;;;;;;4970081;28;91665;-78
2023/09/04 09:42:13;;;;;;;109.97;58.25;;;21.60;87.10;;;;;;4975682;28;89953;-75
2023/09/04 09:44:39;;;;;;;108.38;58.15;;;21.70;86.80;;;;;;4965285;28;92485;-78
2023/09/04 09:47:11;;;;;;;106.50;58.20;;;21.70;86.40;;;;;;4975934;28;90894;-78
2023/09/04 09:49:37;;;;;;;106.03;58.00;;;21.80;86.40;;;;;;4979192;28;91000;-78
2023/09/04 09:52:13;;;;;;;108.03;58.00;;;21.80;86.50;;;;;;4968552;28;90815;-76
2023/09/04 09:54:41;;;;;;;106.70;58.17;;;21.90;86.10;;;;;;4977411;28;91138;-77
2023/09/04 09:57:12;;;;;;;108.07;58.35;;;21.90;85.90;;;;;;4975139;28;90051;-78
2023/09/04 09:59:46;;;;;;;108.70;58.28;;;22.00;85.90;;;;;;4964412;28;91105;-79
2023/09/04 10:02:22;;;;;;;107.43;58.05;;;22.00;86.00;;;;;;4971361;28;89862;-78
2023/09/04 10:04:48;;;;;;;108.63;58.20;;;22.00;86.20;;;;;;4977508;28;90283;-76
2023/09/04 10:07:36;;;;;;;107.20;57.92;;;22.00;86.00;;;;;;4972262;28;94425;-77
2023/09/04 10:10:03;;;;;;;107.47;58.17;;;22.10;85.60;;;;;;4956501;28;90006;-78
2023/09/04 10:12:50;;;;;;;109.55;58.33;;;22.10;85.60;;;;;;4982166;28;89338;-78
2023/09/04 10:15:23;;;;;;;111.45;58.60;;;22.20;85.30;;;;;;4975414;28;91979;-78
2023/09/04 10:17:51;;;;;;;107.30;58.00;;;22.30;85.00;;;;;;4980323;28;91380;-78
2023/09/04 10:20:18;;;;;;;106.40;57.88;;;22.30;84.80;;;;;;4962413;28;90994;-79
2023/09/04 10:22:47;;;;;;;108.35;58.47;;;22.40;84.60;;;;;;4966993;28;90703;-77
2023/09/04 10:25:36;;;;;;;109.20;58.45;;;22.40;84.50;;;;;;4971495;28;89851;-78
2023/09/04 10:28:23;;;;;;;106.90;57.58;;;22.40;84.80;;;;;;4972167;28;90092;-79
2023/09/04 10:30:53;;;;;;;107.50;58.38;;;22.50;84.70;;;;;;4976220;28;89980;-78
2023/09/04 10:33:20;;;;;;;110.07;58.67;;;22.60;84.50;;;;;;4967287;28;91770;-79
2023/09/04 10:35:46;;;;;;;108.18;58.60;;;22.60;84.20;;;;;;4977819;28;91543;-75
2023/09/04 10:38:12;;;;;;;109.78;58.72;;;22.60;84.10;;;;;;4965327;28;89559;-79
2023/09/04 10:40:39;;;;;;;111.97;58.80;;;22.70;83.70;;;;;;4962031;28;89962;-79
2023/09/04 10:43:05;;;;;;;110.07;58.53;;;22.70;83.70;;;;;;4971070;28;89691;-78
2023/09/04 10:45:32;;;;;;;107.45;58.08;;;22.80;83.90;;;;;;4968262;28;92769;-79
2023/09/04 10:47:59;;;;;;;107.28;57.75;;;22.80;83.60;;;;;;4968382;28;89879;-74
2023/09/04 10:50:29;;;;;;;109.38;58.47;;;22.80;83.30;;;;;;4977084;28;95881;-77
2023/09/04 10:52:56;;;;;;;107.38;58.45;;;22.90;83.20;;;;;;4965202;28;90296;-76
2023/09/04 10:55:24;;;;;;;108.53;58.78;;;22.90;83.10;;;;;;4969450;28;89790;-75
2023/09/04 10:58:00;;;;;;;107.63;58.65;;;23.00;83.10;;;;;;4974214;28;94834;-77
2023/09/04 11:00:30;;;;;;;108.63;58.40;;;23.00;83.40;;;;;;4974766;28;93652;-79
2023/09/04 11:02:58;;;;;;;108.72;58.63;;;23.00;82.60;;;;;;4964566;28;94482;-77
2023/09/04 11:05:24;;;;;;;109.78;58.72;;;23.10;82.40;;;;;;4981319;28;90463;-78
2023/09/04 11:07:50;;;;;;;107.97;58.60;;;23.10;82.60;;;;;;4982458;28;90050;-77
2023/09/04 11:10:19;;;;;;;111.82;58.45;;;23.10;82.20;;;;;;4967471;28;92451;-79
2023/09/04 11:12:45;;;;;;;110.30;58.78;;;23.20;82.20;;;;;;4972817;28;90755;-78
2023/09/04 11:15:15;;;;;;;109.20;58.83;;;23.20;81.50;;;;;;4971128;28;89631;-77
2023/09/04 11:17:45;;;;;;;109.35;58.45;;;23.30;82.30;;;;;;4966721;28;89637;-79
2023/09/04 11:20:14;;;;;;;108.63;58.63;;;23.30;81.20;;;;;;4973075;28;90716;-80
2023/09/04 11:22:46;;;;;;;110.10;58.47;;;23.30;81.10;;;;;;4962872;28;90045;-78
2023/09/04 11:25:12;;;;;;;108.88;58.92;;;23.40;80.00;;;;;;4977241;28;89853;-79
2023/09/04 11:27:37;;;;;;;109.28;58.67;;;23.40;80.40;;;;;;4965350;28;89050;-79
2023/09/04 11:30:03;;;;;;;108.85;58.67;;;23.50;80.70;;;;;;4954222;28;90663;-77
2023/09/04 11:32:29;;;;;;;109.00;58.83;;;23.50;81.10;;;;;;4973150;28;90188;-79
2023/09/04 11:34:55;;;;;;;109.88;58.65;;;23.60;80.70;;;;;;4978387;28;91283;-79
2023/09/04 11:37:20;;;;;;;108.93;58.75;;;23.60;79.40;;;;;;4983329;28;91371;-79
2023/09/04 11:39:56;;;;;;;109.05;58.55;;;23.60;79.70;;;;;;4971328;28;92554;-76
2023/09/04 11:42:23;;;;;;;109.07;58.65;;;23.60;80.50;;;;;;4959425;28;89917;-79
2023/09/04 11:44:49;;;;;;;111.57;59.38;;;23.70;79.60;;;;;;4987972;28;91210;-78
2023/09/04 11:47:19;;;;;;;110.20;59.28;;;23.70;78.40;;;;;;4956491;28;89503;-78
2023/09/04 11:49:49;;;;;;;108.57;58.83;;;23.70;78.50;;;;;;4968263;28;92499;-78
2023/09/04 11:52:18;;;;;;;110.00;58.97;;;23.80;78.00;;;;;;4982819;28;91692;-77
2023/09/04 11:54:44;;;;;;;109.45;58.78;;;23.80;78.80;;;;;;4965532;28;90087;-78
2023/09/04 11:57:10;;;;;;;108.10;58.30;;;23.80;77.50;;;;;;4965587;28;89832;-79
2023/09/04 11:59:38;;;;;;;108.90;59.05;;;23.80;79.30;;;;;;4966734;28;92902;-77
2023/09/04 12:02:05;;;;;;;109.95;58.80;;;23.90;77.70;;;;;;4969138;28;91166;-76
2023/09/04 12:04:32;;;;;;;108.07;58.25;;;23.90;77.20;;;;;;4977587;28;89904;-76
2023/09/04 12:07:05;;;;;;;109.18;58.95;;;23.90;77.90;;;;;;4973961;28;93158;-76
2023/09/04 12:09:33;;;;;;;109.40;58.78;;;24.00;76.80;;;;;;4972409;28;90730;-78
2023/09/04 12:12:01;;;;;;;109.18;58.63;;;24.00;77.10;;;;;;4964357;28;94675;-78
2023/09/04 12:14:27;;;;;;;108.40;58.50;;;24.00;76.40;;;;;;4971997;28;90036;-75
2023/09/04 12:16:53;;;;;;;108.45;58.75;;;24.00;77.10;;;;;;4981580;28;90075;-77
2023/09/04 12:19:23;;;;;;;109.75;58.67;;;24.10;76.20;;;;;;4964912;28;91042;-75